createdAt,value
2023-04-20T00:02:49.736Z,36.95
2023-04-20T00:06:02.173Z,38.08
2023-04-20T00:09:15.124Z,36.05
2023-04-20T00:12:27.877Z,40.88
2023-04-20T00:15:40.712Z,35.98
2023-04-20T00:18:55.474Z,38.88
2023-04-20T00:22:08.006Z,37.00
2023-04-20T00:25:20.360Z,38.30
2023-04-20T00:28:32.599Z,35.28
2023-04-20T00:31:45.232Z,36.75
2023-04-20T00:34:59.226Z,40.05
2023-04-20T00:38:11.374Z,45.75
2023-04-20T00:41:23.773Z,40.20
2023-04-20T00:44:37.801Z,42.75
2023-04-20T00:47:50.069Z,40.35
2023-04-20T00:51:02.758Z,38.93
2023-04-20T00:54:15.675Z,41.65
2023-04-20T00:57:28.377Z,41.08
2023-04-20T01:00:44.588Z,42.08
2023-04-20T01:03:57.264Z,42.05
2023-04-20T01:07:10.131Z,41.63
2023-04-20T01:10:22.445Z,43.95
2023-04-20T01:13:34.671Z,40.48
2023-04-20T01:16:47.505Z,42.20
2023-04-20T01:20:00.284Z,47.08
2023-04-20T01:23:13.153Z,43.05
2023-04-20T01:26:28.175Z,40.75
2023-04-20T01:29:40.969Z,40.80
2023-04-20T01:32:55.035Z,37.75
2023-04-20T01:36:08.638Z,36.50
2023-04-20T01:39:21.724Z,43.15
2023-04-20T01:42:34.157Z,38.33
2023-04-20T01:45:46.509Z,39.23
2023-04-20T01:48:58.754Z,35.38
2023-04-20T01:52:11.789Z,37.40
2023-04-20T01:55:25.541Z,34.18
2023-04-20T01:58:37.950Z,36.78
2023-04-20T02:01:50.386Z,32.70
2023-04-20T02:05:02.673Z,36.88
2023-04-20T02:08:14.971Z,39.20
2023-04-20T02:11:27.182Z,32.98
2023-04-20T02:14:39.082Z,33.98
2023-04-20T02:17:54.031Z,38.25
2023-04-20T02:21:06.324Z,41.78
2023-04-20T02:24:18.335Z,37.43
2023-04-20T02:27:30.482Z,36.80
2023-04-20T02:30:42.672Z,34.63
2023-04-20T02:33:56.720Z,36.15
2023-04-20T02:37:09.200Z,36.75
2023-04-20T02:40:21.549Z,37.63
2023-04-20T02:43:35.541Z,41.90
2023-04-20T02:46:48.738Z,41.25
2023-04-20T02:50:02.651Z,45.40
2023-04-20T02:53:16.537Z,45.68
2023-04-20T02:56:31.047Z,49.58
2023-04-20T02:59:46.553Z,55.88
2023-04-20T03:03:12.827Z,53.50
2023-04-20T03:06:26.849Z,52.70
2023-04-20T03:09:41.255Z,54.73
2023-04-20T03:12:55.261Z,59.75
2023-04-20T03:16:18.588Z,56.05
2023-04-20T03:19:35.552Z,54.33
2023-04-20T03:22:48.686Z,51.15
2023-04-20T03:26:01.957Z,46.60
2023-04-20T03:29:33.145Z,50.05
2023-04-20T03:32:46.719Z,51.33
2023-04-20T03:35:58.991Z,44.83
2023-04-20T03:39:11.678Z,46.43
2023-04-20T03:42:23.719Z,48.45
2023-04-20T03:45:36.302Z,47.28
2023-04-20T03:48:48.330Z,44.93
2023-04-20T03:52:00.503Z,45.58
2023-04-20T03:55:14.858Z,44.38
2023-04-20T03:58:29.016Z,48.37
2023-04-20T04:01:48.870Z,44.00
2023-04-20T04:05:01.893Z,43.80
2023-04-20T04:08:14.121Z,41.60
2023-04-20T04:11:27.017Z,40.70
2023-04-20T04:14:39.701Z,41.48
2023-04-20T04:17:53.081Z,40.70
2023-04-20T04:21:05.404Z,37.80
2023-04-20T04:24:19.807Z,46.63
2023-04-20T04:27:35.047Z,40.75
2023-04-20T04:30:47.555Z,40.48
2023-04-20T04:34:00.140Z,41.10
2023-04-20T04:37:14.633Z,36.50
2023-04-20T04:40:29.441Z,39.95
2023-04-20T04:43:42.450Z,35.85
2023-04-20T04:47:02.820Z,40.08
2023-04-20T04:50:17.911Z,38.70
2023-04-20T04:53:31.140Z,81.85
2023-04-20T04:56:43.243Z,117.68
2023-04-20T04:59:55.898Z,50.18
2023-04-20T05:03:08.235Z,42.05
2023-04-20T05:06:20.514Z,38.58
2023-04-20T05:09:33.796Z,39.10
2023-04-20T05:12:48.870Z,40.70
2023-04-20T05:16:01.334Z,41.25
2023-04-20T05:19:13.367Z,39.35
2023-04-20T05:22:25.805Z,40.75
2023-04-20T05:25:38.633Z,107.13
2023-04-20T05:28:51.549Z,45.78
2023-04-20T05:32:04.140Z,43.93
2023-04-20T05:35:18.105Z,44.13
2023-04-20T05:38:31.053Z,39.53
2023-04-20T05:41:43.556Z,43.95
2023-04-20T05:44:56.118Z,55.10
2023-04-20T05:48:08.719Z,111.28
2023-04-20T05:51:22.318Z,45.20
2023-04-20T05:54:34.501Z,45.88
2023-04-20T05:57:46.887Z,50.83
2023-04-20T06:00:59.082Z,39.95
2023-04-20T06:04:11.502Z,38.88
2023-04-20T06:07:24.118Z,40.43
2023-04-20T06:10:36.530Z,40.13
2023-04-20T06:13:48.706Z,39.38
2023-04-20T06:17:01.041Z,171.50
2023-04-20T06:20:17.527Z,64.60
2023-04-20T06:23:29.754Z,41.08
2023-04-20T06:26:42.227Z,48.15
2023-04-20T06:29:55.185Z,44.43
2023-04-20T06:33:08.763Z,40.30
2023-04-20T06:36:21.840Z,40.40
2023-04-20T06:39:34.013Z,38.63
2023-04-20T06:42:46.584Z,39.68
2023-04-20T06:45:58.783Z,44.00
2023-04-20T06:49:11.203Z,38.35
2023-04-20T06:52:24.213Z,31.00
2023-04-20T06:55:36.804Z,35.70
2023-04-20T06:58:49.504Z,35.05
2023-04-20T07:02:01.924Z,30.73
2023-04-20T07:05:15.683Z,41.53
2023-04-20T07:08:28.578Z,52.25
2023-04-20T07:11:42.128Z,38.43
2023-04-20T07:14:55.198Z,39.95
2023-04-20T07:18:07.422Z,42.15
2023-04-20T07:21:19.806Z,38.85
2023-04-20T07:24:32.191Z,39.05
2023-04-20T07:27:46.022Z,38.08
2023-04-20T07:30:59.722Z,36.40
2023-04-20T07:34:12.130Z,37.10
2023-04-20T07:37:26.852Z,37.38
2023-04-20T07:40:38.782Z,34.70
2023-04-20T07:43:50.889Z,37.25
2023-04-20T07:47:03.390Z,37.78
2023-04-20T07:50:17.122Z,39.30
2023-04-20T07:53:29.388Z,46.13
2023-04-20T07:56:41.416Z,30.90
2023-04-20T07:59:54.929Z,39.08
2023-04-20T08:03:07.110Z,35.95
2023-04-20T08:06:19.579Z,35.88
2023-04-20T08:09:31.721Z,31.38
2023-04-20T08:12:44.656Z,31.75
2023-04-20T08:15:56.839Z,28.75
2023-04-20T08:19:10.632Z,28.83
2023-04-20T08:22:24.598Z,29.10
2023-04-20T08:25:37.376Z,31.90
2023-04-20T08:28:49.625Z,31.00
2023-04-20T08:32:02.126Z,35.75
2023-04-20T08:35:15.491Z,35.73
2023-04-20T08:38:33.727Z,37.25
2023-04-20T08:41:42.304Z,39.63
2023-04-20T08:44:54.804Z,73.28
2023-04-20T08:48:13.167Z,62.55
2023-04-20T08:51:25.562Z,38.23
2023-04-20T08:54:42.824Z,35.88
2023-04-20T08:57:54.268Z,37.08
2023-04-20T09:01:06.881Z,39.70
2023-04-20T09:04:28.759Z,32.45
2023-04-20T09:07:41.233Z,34.88
2023-04-20T09:10:53.491Z,25.68
2023-04-20T09:14:12.805Z,20.52
2023-04-20T09:17:36.411Z,20.15
2023-04-20T09:20:49.938Z,25.20
2023-04-20T09:24:10.832Z,21.70
2023-04-20T09:27:27.032Z,17.90
2023-04-20T09:30:47.603Z,17.40
2023-04-20T09:34:08.288Z,19.43
2023-04-20T09:37:23.176Z,17.20
2023-04-20T09:40:36.267Z,19.28
2023-04-20T09:43:49.057Z,19.88
2023-04-20T09:47:01.581Z,50.13
2023-04-20T09:50:26.637Z,36.83
2023-04-20T09:53:32.442Z,27.03
2023-04-20T09:56:45.890Z,19.40
2023-04-20T10:00:02.372Z,21.25
2023-04-20T10:03:19.112Z,19.20
2023-04-20T10:06:34.276Z,23.53
2023-04-20T10:09:46.778Z,17.55
2023-04-20T10:13:00.819Z,20.73
2023-04-20T10:16:23.195Z,21.28
2023-04-20T10:19:47.777Z,20.85
2023-04-20T10:23:03.556Z,18.13
2023-04-20T10:26:16.888Z,15.88
2023-04-20T10:29:35.876Z,19.38
2023-04-20T10:32:48.793Z,21.30
2023-04-20T10:36:02.149Z,14.15
2023-04-20T10:39:27.961Z,14.98
2023-04-20T10:42:50.689Z,34.58
2023-04-20T10:46:02.956Z,47.93
2023-04-20T10:49:15.412Z,19.70
2023-04-20T10:52:40.967Z,11.63
2023-04-20T10:55:55.804Z,15.85
2023-04-20T10:59:16.464Z,14.65
2023-04-20T11:02:29.197Z,23.75
2023-04-20T11:05:41.975Z,17.75
2023-04-20T11:08:54.461Z,17.63
2023-04-20T11:12:14.426Z,24.00
2023-04-20T11:15:36.790Z,18.50
2023-04-20T11:18:59.414Z,15.78
2023-04-20T11:22:12.807Z,19.70
2023-04-20T11:25:25.000Z,18.75
2023-04-20T11:28:38.947Z,22.70
2023-04-20T11:31:58.429Z,27.08
2023-04-20T11:35:14.971Z,23.50
2023-04-20T11:38:37.974Z,18.88
2023-04-20T11:41:50.248Z,28.23
2023-04-20T11:45:03.514Z,11.15
2023-04-20T11:48:16.054Z,11.18
2023-04-20T11:51:28.506Z,13.03
2023-04-20T11:54:40.750Z,11.43
2023-04-20T11:57:52.869Z,10.35
2023-04-20T12:01:05.671Z,18.05
2023-04-20T12:04:18.437Z,10.63
2023-04-20T12:07:31.838Z,13.58
2023-04-20T12:10:47.309Z,11.65
2023-04-20T12:14:00.585Z,15.70
2023-04-20T12:17:12.966Z,14.73
2023-04-20T12:20:25.481Z,9.90
2023-04-20T12:23:37.676Z,14.53
2023-04-20T12:26:50.165Z,14.83
2023-04-20T12:30:02.409Z,11.85
2023-04-20T12:33:14.872Z,12.35
2023-04-20T12:36:27.906Z,12.23
2023-04-20T12:39:40.269Z,18.15
2023-04-20T12:42:52.295Z,20.95
2023-04-20T12:46:04.464Z,16.00
2023-04-20T12:49:17.274Z,15.23
2023-04-20T12:52:29.788Z,11.68
2023-04-20T12:55:42.620Z,16.65
2023-04-20T12:58:54.764Z,18.50
2023-04-20T13:02:06.978Z,21.65
2023-04-20T13:05:20.062Z,12.33
2023-04-20T13:08:32.364Z,18.53
2023-04-20T13:11:44.880Z,16.53
2023-04-20T13:14:57.497Z,21.95
2023-04-20T13:18:10.464Z,20.20
2023-04-20T13:21:22.939Z,15.80
2023-04-20T13:24:35.358Z,20.45
2023-04-20T13:27:47.680Z,23.25
2023-04-20T13:31:00.419Z,18.25
2023-04-20T13:34:13.045Z,17.85
2023-04-20T13:37:26.077Z,10.93
2023-04-20T13:40:39.342Z,18.35
2023-04-20T13:43:52.164Z,16.70
2023-04-20T13:47:04.485Z,20.80
2023-04-20T13:50:18.020Z,17.08
2023-04-20T13:53:30.182Z,16.80
2023-04-20T13:56:43.100Z,17.18
2023-04-20T13:59:54.995Z,14.80
2023-04-20T14:03:07.435Z,19.40
2023-04-20T14:06:19.963Z,25.20
2023-04-20T14:09:32.766Z,13.70
2023-04-20T14:12:44.887Z,13.20
2023-04-20T14:15:58.724Z,12.68
2023-04-20T14:19:11.149Z,15.93
2023-04-20T14:22:23.381Z,16.93
2023-04-20T14:25:35.680Z,16.43
2023-04-20T14:28:47.777Z,23.00
2023-04-20T14:32:00.240Z,14.53
2023-04-20T14:35:14.340Z,20.20
2023-04-20T14:38:26.784Z,11.38
2023-04-20T14:41:39.990Z,12.68
2023-04-20T14:44:52.291Z,15.53
2023-04-20T14:48:04.781Z,31.83
2023-04-20T14:51:18.962Z,15.05
2023-04-20T14:54:32.807Z,19.55
2023-04-20T14:57:45.284Z,19.40
2023-04-20T15:00:58.348Z,14.15
2023-04-20T15:04:11.120Z,16.65
2023-04-20T15:07:23.482Z,23.25
2023-04-20T15:10:37.889Z,15.63
2023-04-20T15:13:52.283Z,15.50
2023-04-20T15:17:04.384Z,18.13
2023-04-20T15:20:19.707Z,25.08
2023-04-20T15:23:32.189Z,12.60
2023-04-20T15:26:44.481Z,23.08
2023-04-20T15:29:58.338Z,17.20
2023-04-20T15:33:12.179Z,17.18
2023-04-20T15:36:25.807Z,20.33
2023-04-20T15:39:38.116Z,40.43
2023-04-20T15:42:50.323Z,108.00
2023-04-20T15:46:03.794Z,38.23
2023-04-20T15:49:16.346Z,17.80
2023-04-20T15:52:28.818Z,15.78
2023-04-20T15:55:44.201Z,16.08
2023-04-20T15:58:56.871Z,13.00
2023-04-20T16:02:09.242Z,17.73
2023-04-20T16:05:21.575Z,13.50
2023-04-20T16:08:33.765Z,21.70
2023-04-20T16:11:46.897Z,12.10
2023-04-20T16:14:58.941Z,12.28
2023-04-20T16:18:11.776Z,12.23
2023-04-20T16:21:24.665Z,17.65
2023-04-20T16:24:37.044Z,15.03
2023-04-20T16:27:49.166Z,18.20
2023-04-20T16:31:01.638Z,18.40
2023-04-20T16:34:14.646Z,20.50
2023-04-20T16:37:26.971Z,9.43
2023-04-20T16:40:39.585Z,15.93
2023-04-20T16:43:52.122Z,13.53
2023-04-20T16:47:05.394Z,14.18
2023-04-20T16:50:19.877Z,17.33
2023-04-20T16:53:32.736Z,12.20
2023-04-20T16:56:45.428Z,16.58
2023-04-20T16:59:57.725Z,14.63
2023-04-20T17:03:13.735Z,18.90
2023-04-20T17:06:26.347Z,22.97
2023-04-20T17:09:39.477Z,16.48
2023-04-20T17:12:52.308Z,20.50
2023-04-20T17:16:04.661Z,20.83
2023-04-20T17:19:17.116Z,18.53
2023-04-20T17:22:30.152Z,15.53
2023-04-20T17:25:43.888Z,13.33
2023-04-20T17:28:56.182Z,18.63
2023-04-20T17:32:09.565Z,17.03
2023-04-20T17:35:22.941Z,16.28
2023-04-20T17:38:37.006Z,21.98
2023-04-20T17:41:50.261Z,19.55
2023-04-20T17:45:02.442Z,21.88
2023-04-20T17:48:14.999Z,21.68
2023-04-20T17:51:28.003Z,22.60
2023-04-20T17:54:40.386Z,18.65
2023-04-20T17:57:53.026Z,18.33
2023-04-20T18:01:05.303Z,18.65
2023-04-20T18:07:19.766Z,14.00
2023-04-20T18:10:32.311Z,12.90
2023-04-20T18:13:45.381Z,16.88
2023-04-20T18:16:58.991Z,23.68
2023-04-20T18:20:14.324Z,18.10
2023-04-20T18:23:26.437Z,19.93
2023-04-20T18:26:40.273Z,14.83
2023-04-20T18:29:54.006Z,24.55
2023-04-20T18:39:07.768Z,42.08
2023-04-20T18:51:20.761Z,29.33
2023-04-20T18:54:33.262Z,36.68
2023-04-20T18:57:45.371Z,36.93
2023-04-20T19:00:57.909Z,34.83
2023-04-20T19:04:13.182Z,34.75
2023-04-20T19:07:25.762Z,25.73
2023-04-20T19:10:37.924Z,28.13
2023-04-20T19:13:50.044Z,25.33
2023-04-20T19:17:02.244Z,24.28
2023-04-20T19:20:17.626Z,25.95
2023-04-20T19:23:30.092Z,26.60
2023-04-20T19:26:42.278Z,37.70
2023-04-20T19:29:54.449Z,20.68
2023-04-20T19:33:06.659Z,30.28
2023-04-20T19:36:19.735Z,20.03
2023-04-20T19:39:33.643Z,26.55
2023-04-20T19:42:48.588Z,22.33
2023-04-20T19:46:01.787Z,21.18
2023-04-20T19:49:14.156Z,23.55
2023-04-20T19:52:26.580Z,33.70
2023-04-20T19:55:38.965Z,22.38
2023-04-20T19:58:51.201Z,27.38
2023-04-20T20:02:03.673Z,23.93
2023-04-20T20:05:17.106Z,23.73
2023-04-20T20:08:29.161Z,25.65
2023-04-20T20:11:43.745Z,27.20
2023-04-20T20:14:56.410Z,28.08
2023-04-20T20:18:10.910Z,31.00
2023-04-20T20:21:23.167Z,26.73
2023-04-20T20:24:35.601Z,26.40
2023-04-20T20:27:48.711Z,29.50
2023-04-20T20:31:01.836Z,28.60
2023-04-20T20:34:14.768Z,28.48
2023-04-20T20:37:27.221Z,29.00
2023-04-20T20:40:39.974Z,25.03
2023-04-20T20:43:53.041Z,23.28
2023-04-20T20:47:05.349Z,33.78
2023-04-20T20:50:20.301Z,30.95
2023-04-20T20:53:32.643Z,26.98
2023-04-20T20:56:44.580Z,28.58
2023-04-20T21:02:57.403Z,29.08
2023-04-20T21:06:10.221Z,29.13
2023-04-20T21:09:22.267Z,37.55
2023-04-20T21:12:34.317Z,25.68
2023-04-20T21:21:46.590Z,30.60
2023-04-20T21:24:58.616Z,28.63
2023-04-20T21:28:11.000Z,34.88
2023-04-20T21:31:23.053Z,23.38
2023-04-20T21:34:35.094Z,26.50
2023-04-20T21:37:47.169Z,33.73
2023-04-20T21:40:59.155Z,31.05
2023-04-20T21:44:11.482Z,62.85
2023-04-20T21:47:23.484Z,52.45
2023-04-20T21:50:35.740Z,51.03
2023-04-20T21:53:48.149Z,69.13
2023-04-20T21:57:00.173Z,78.03
2023-04-20T22:00:15.692Z,73.20
2023-04-20T22:03:29.895Z,57.30
2023-04-20T22:06:42.054Z,37.30
2023-04-20T22:09:54.196Z,23.08
2023-04-20T22:13:06.669Z,28.45
2023-04-20T22:16:20.937Z,27.48
2023-04-20T22:19:33.717Z,26.75
2023-04-20T22:22:46.544Z,25.13
2023-04-20T22:25:58.740Z,24.65
2023-04-20T22:29:11.069Z,26.68
2023-04-20T22:32:23.193Z,31.98
2023-04-20T22:35:35.429Z,29.23
2023-04-20T22:38:47.427Z,35.35
2023-04-20T22:41:59.539Z,40.90
2023-04-20T22:45:14.509Z,30.25
2023-04-20T22:48:26.820Z,26.08
2023-04-20T22:51:38.816Z,27.45
2023-04-20T22:54:52.061Z,32.05
2023-04-20T22:58:04.149Z,25.15
2023-04-20T23:01:16.191Z,32.10
2023-04-20T23:04:28.267Z,27.78
2023-04-20T23:07:41.625Z,24.68
2023-04-20T23:10:53.877Z,32.63
2023-04-20T23:14:06.460Z,23.02
2023-04-20T23:17:18.447Z,23.38
2023-04-20T23:20:31.219Z,25.30
2023-04-20T23:23:43.313Z,25.75
2023-04-20T23:26:55.277Z,24.98
2023-04-20T23:30:07.482Z,21.95
2023-04-20T23:33:19.362Z,33.35
2023-04-20T23:36:31.451Z,27.88
2023-04-20T23:39:45.550Z,31.75
2023-04-20T23:42:57.547Z,27.45
2023-04-20T23:46:09.701Z,26.50
2023-04-20T23:49:21.839Z,27.90
2023-04-20T23:52:34.179Z,25.38
2023-04-20T23:55:48.313Z,28.60
2023-04-20T23:59:00.427Z,28.00
